createdAt,value
2018-05-26T00:00:12.636Z,55.30
2018-05-26T00:02:39.899Z,55.30
2018-05-26T00:05:07.081Z,55.30
2018-05-26T00:07:34.307Z,55.30
2018-05-26T00:10:01.528Z,55.30
2018-05-26T00:12:28.739Z,55.20
2018-05-26T00:14:55.968Z,55.20
2018-05-26T00:17:23.193Z,55.20
2018-05-26T00:19:50.381Z,55.20
2018-05-26T00:22:17.563Z,55.20
2018-05-26T00:24:44.802Z,55.20
2018-05-26T00:27:12.804Z,55.20
2018-05-26T00:29:40.035Z,55.10
2018-05-26T00:32:07.239Z,55.20
2018-05-26T00:34:34.456Z,55.20
2018-05-26T00:37:01.726Z,55.20
2018-05-26T00:39:29.000Z,55.20
2018-05-26T00:41:56.197Z,55.20
2018-05-26T00:44:23.400Z,55.20
2018-05-26T00:46:50.620Z,55.10
2018-05-26T00:49:17.843Z,55.20
2018-05-26T00:51:45.048Z,55.10
2018-05-26T00:54:12.255Z,55.10
2018-05-26T00:56:39.452Z,55.10
2018-05-26T00:59:06.670Z,55.10
2018-05-26T01:01:33.878Z,55.10
2018-05-26T01:04:01.927Z,55.10
2018-05-26T01:06:29.145Z,55.00
2018-05-26T01:08:56.354Z,55.10
2018-05-26T01:11:23.580Z,55.70
2018-05-26T01:13:50.793Z,55.10
2018-05-26T01:16:18.015Z,55.70
2018-05-26T01:18:45.208Z,55.10
2018-05-26T01:21:12.432Z,55.10
2018-05-26T01:23:39.625Z,55.10
2018-05-26T01:26:06.923Z,55.00
2018-05-26T01:28:34.156Z,55.00
2018-05-26T01:31:02.140Z,55.00
2018-05-26T01:33:29.366Z,55.00
2018-05-26T01:35:57.363Z,55.10
2018-05-26T01:38:24.560Z,55.00
2018-05-26T01:40:51.763Z,55.00
2018-05-26T01:43:18.984Z,55.00
2018-05-26T01:45:46.937Z,55.00
2018-05-26T01:48:14.126Z,55.00
2018-05-26T01:50:41.365Z,55.00
2018-05-26T01:53:08.585Z,55.00
2018-05-26T01:55:35.781Z,55.00
2018-05-26T01:58:03.005Z,55.00
2018-05-26T02:00:31.066Z,55.00
2018-05-26T02:02:59.096Z,55.00
2018-05-26T02:05:26.301Z,54.90
2018-05-26T02:07:54.313Z,55.00
2018-05-26T02:10:21.503Z,54.90
2018-05-26T02:12:49.455Z,55.00
2018-05-26T02:15:16.687Z,55.00
2018-05-26T02:17:43.931Z,55.00
2018-05-26T02:20:11.147Z,55.00
2018-05-26T02:22:38.356Z,55.00
2018-05-26T02:25:05.584Z,55.10
2018-05-26T02:27:32.781Z,55.10
2018-05-26T02:30:00.783Z,55.10
2018-05-26T02:32:28.019Z,55.10
2018-05-26T02:34:55.247Z,55.10
2018-05-26T02:37:23.246Z,55.10
2018-05-26T02:39:50.444Z,55.10
2018-05-26T02:42:17.663Z,55.10
2018-05-26T02:44:44.891Z,55.10
2018-05-26T02:47:12.110Z,55.10
2018-05-26T02:49:39.301Z,55.10
2018-05-26T02:52:06.537Z,55.10
2018-05-26T02:54:33.734Z,55.10
2018-05-26T02:57:01.686Z,55.10
2018-05-26T02:59:28.943Z,55.90
2018-05-26T03:01:56.172Z,55.10
2018-05-26T03:04:29.039Z,55.10
2018-05-26T03:07:01.807Z,55.10
2018-05-26T03:09:35.481Z,55.10
2018-05-26T03:12:08.480Z,55.10
2018-05-26T03:14:41.388Z,55.00
2018-05-26T03:17:08.645Z,55.10
2018-05-26T03:19:35.864Z,55.00
2018-05-26T03:22:03.078Z,55.00
2018-05-26T03:24:30.287Z,55.00
2018-05-26T03:26:57.527Z,55.00
2018-05-26T03:29:25.499Z,55.00
2018-05-26T03:31:53.511Z,55.00
2018-05-26T03:34:20.701Z,54.90
2018-05-26T03:36:47.906Z,54.90
2018-05-26T03:39:15.125Z,54.60
2018-05-26T03:41:43.120Z,54.80
2018-05-26T03:44:10.386Z,54.80
2018-05-26T03:46:37.596Z,54.80
2018-05-26T03:49:04.820Z,54.70
2018-05-26T03:51:32.139Z,54.70
2018-05-26T03:54:00.103Z,54.70
2018-05-26T03:56:33.206Z,54.70
2018-05-26T03:59:06.454Z,54.60
2018-05-26T04:01:33.688Z,54.60
2018-05-26T04:04:01.672Z,54.70
2018-05-26T04:06:28.931Z,54.60
2018-05-26T04:08:56.119Z,54.70
2018-05-26T04:11:23.349Z,54.70
2018-05-26T04:13:50.609Z,54.70
2018-05-26T04:16:17.839Z,54.60
2018-05-26T04:18:45.105Z,54.60
2018-05-26T04:21:12.340Z,54.60
2018-05-26T04:23:39.567Z,54.60
2018-05-26T04:26:07.528Z,54.50
2018-05-26T04:28:35.512Z,54.50
2018-05-26T04:31:02.721Z,54.50
2018-05-26T04:33:29.970Z,54.50
2018-05-26T04:35:57.161Z,54.50
2018-05-26T04:38:24.402Z,54.50
2018-05-26T04:40:52.364Z,54.50
2018-05-26T04:43:20.371Z,54.60
2018-05-26T04:45:47.588Z,54.50
2018-05-26T04:48:15.545Z,54.50
2018-05-26T04:50:43.505Z,54.50
2018-05-26T04:53:10.723Z,54.40
2018-05-26T04:55:37.958Z,55.10
2018-05-26T04:58:05.145Z,54.50
2018-05-26T05:00:32.371Z,54.40
2018-05-26T05:02:59.583Z,54.40
2018-05-26T05:05:26.881Z,54.40
2018-05-26T05:07:54.072Z,54.40
2018-05-26T05:10:22.076Z,54.40
2018-05-26T05:12:49.261Z,54.30
2018-05-26T05:15:16.475Z,54.40
2018-05-26T05:17:43.707Z,54.40
2018-05-26T05:20:10.923Z,54.40
2018-05-26T05:22:38.113Z,54.40
2018-05-26T05:25:05.346Z,54.40
2018-05-26T05:27:33.340Z,54.50
2018-05-26T05:30:00.567Z,54.40
2018-05-26T05:32:28.564Z,54.50
2018-05-26T05:34:55.810Z,54.50
2018-05-26T05:37:23.027Z,54.50
2018-05-26T05:39:51.011Z,54.50
2018-05-26T05:42:18.194Z,54.50
2018-05-26T05:44:45.427Z,54.60
2018-05-26T05:47:12.649Z,54.60
2018-05-26T05:49:40.634Z,54.60
2018-05-26T05:52:07.835Z,54.60
2018-05-26T05:54:35.036Z,54.60
2018-05-26T05:57:02.227Z,54.70
2018-05-26T05:59:29.431Z,54.70
2018-05-26T06:01:56.715Z,54.70
2018-05-26T06:04:23.913Z,54.70
2018-05-26T06:06:51.881Z,54.80
2018-05-26T06:09:19.892Z,54.80
2018-05-26T06:11:47.086Z,54.80
2018-05-26T06:14:14.267Z,54.80
2018-05-26T06:16:41.481Z,54.80
2018-05-26T06:19:08.716Z,54.90
2018-05-26T06:21:35.913Z,54.90
2018-05-26T06:24:03.929Z,55.00
2018-05-26T06:26:31.257Z,55.00
2018-05-26T06:28:58.440Z,55.00
2018-05-26T06:31:25.642Z,55.00
2018-05-26T06:33:52.837Z,55.10
2018-05-26T06:36:20.079Z,55.10
2018-05-26T06:38:47.291Z,55.10
2018-05-26T06:41:14.525Z,55.10
2018-05-26T06:43:42.489Z,55.10
2018-05-26T06:46:10.491Z,55.20
2018-05-26T06:48:37.740Z,55.10
2018-05-26T06:51:04.964Z,55.10
2018-05-26T06:53:32.946Z,55.30
2018-05-26T06:56:00.158Z,55.10
2018-05-26T06:58:27.418Z,55.20
2018-05-26T07:00:54.619Z,55.20
2018-05-26T07:03:21.847Z,55.20
2018-05-26T07:05:49.036Z,55.30
2018-05-26T07:08:16.249Z,55.30
2018-05-26T07:10:43.462Z,55.30
2018-05-26T07:13:10.661Z,55.30
2018-05-26T07:15:37.922Z,55.30
2018-05-26T07:18:05.113Z,55.40
2018-05-26T07:20:32.320Z,55.50
2018-05-26T07:22:59.528Z,56.10
2018-05-26T07:25:27.511Z,55.40
2018-05-26T07:27:55.531Z,55.40
2018-05-26T07:30:22.759Z,55.40
2018-05-26T07:32:50.013Z,55.40
2018-05-26T07:35:17.209Z,55.40
2018-05-26T07:37:44.440Z,55.40
2018-05-26T07:40:11.629Z,55.40
2018-05-26T07:42:39.590Z,55.40
2018-05-26T07:45:07.581Z,55.40
2018-05-26T07:47:34.795Z,55.40
2018-05-26T07:50:02.028Z,55.40
2018-05-26T07:52:29.329Z,55.20
2018-05-26T07:54:56.554Z,55.40
2018-05-26T07:57:24.547Z,55.40
2018-05-26T07:59:51.757Z,55.30
2018-05-26T08:02:18.948Z,55.40
2018-05-26T08:04:46.181Z,55.40
2018-05-26T08:07:14.137Z,55.40
2018-05-26T08:09:41.356Z,55.30
2018-05-26T08:12:08.549Z,55.40
2018-05-26T08:14:36.534Z,55.50
2018-05-26T08:17:03.930Z,55.30
2018-05-26T08:19:31.216Z,55.40
2018-05-26T08:21:59.197Z,55.40
2018-05-26T08:24:27.199Z,55.40
2018-05-26T08:26:54.412Z,55.40
2018-05-26T08:29:22.396Z,55.50
2018-05-26T08:31:49.608Z,55.40
2018-05-26T08:34:16.797Z,55.50
2018-05-26T08:36:44.083Z,55.50
2018-05-26T08:39:11.312Z,55.50
2018-05-26T08:41:38.532Z,55.50
2018-05-26T08:44:06.517Z,55.60
2018-05-26T08:46:33.718Z,55.50
2018-05-26T08:49:00.925Z,55.50
2018-05-26T08:51:28.141Z,55.50
2018-05-26T08:53:55.352Z,55.60
2018-05-26T08:56:22.575Z,55.70
2018-05-26T08:58:49.823Z,55.60
2018-05-26T09:01:17.113Z,55.50
2018-05-26T09:03:45.235Z,55.60
2018-05-26T09:06:13.233Z,55.60
2018-05-26T09:08:40.441Z,55.50
2018-05-26T09:11:08.404Z,56.20
2018-05-26T09:13:35.922Z,55.50
2018-05-26T09:16:03.232Z,56.30
2018-05-26T09:18:31.232Z,55.60
2018-05-26T09:20:58.475Z,55.50
2018-05-26T09:23:25.713Z,55.60
2018-05-26T09:25:53.025Z,55.60
2018-05-26T09:28:20.269Z,55.60
2018-05-26T09:30:47.522Z,55.60
2018-05-26T09:33:14.862Z,55.60
2018-05-26T09:35:42.093Z,55.70
2018-05-26T09:38:09.645Z,55.70
2018-05-26T09:40:36.859Z,55.70
2018-05-26T09:43:04.364Z,55.70
2018-05-26T09:45:31.561Z,55.70
2018-05-26T09:47:59.541Z,55.70
2018-05-26T09:50:27.533Z,55.70
2018-05-26T09:52:54.757Z,55.70
2018-05-26T09:55:22.763Z,55.70
2018-05-26T09:57:50.004Z,55.70
2018-05-26T10:00:17.257Z,55.70
2018-05-26T10:02:44.469Z,55.70
2018-05-26T10:05:12.432Z,55.80
2018-05-26T10:07:39.665Z,55.80
2018-05-26T10:10:06.891Z,56.10
2018-05-26T10:12:34.159Z,56.00
2018-05-26T10:15:02.053Z,56.00
2018-05-26T10:17:30.284Z,56.00
2018-05-26T10:20:01.622Z,55.90
2018-05-26T10:22:28.922Z,56.00
2018-05-26T10:25:00.132Z,56.00
2018-05-26T10:27:27.391Z,55.90
2018-05-26T10:29:54.639Z,55.90
2018-05-26T10:32:21.965Z,56.00
2018-05-26T10:34:49.185Z,56.00
2018-05-26T10:37:17.195Z,56.00
2018-05-26T10:39:44.482Z,56.00
2018-05-26T10:42:11.707Z,56.00
2018-05-26T10:44:38.947Z,56.10
2018-05-26T10:47:06.280Z,56.20
2018-05-26T10:49:34.325Z,56.50
2018-05-26T10:52:02.283Z,56.40
2018-05-26T10:54:29.476Z,56.40
2018-05-26T10:56:56.749Z,56.40
2018-05-26T10:59:23.944Z,56.30
2018-05-26T11:01:51.928Z,56.40
2018-05-26T11:04:19.146Z,56.30
2018-05-26T11:06:46.395Z,56.30
2018-05-26T11:09:13.647Z,56.30
2018-05-26T11:11:40.828Z,56.30
2018-05-26T11:14:08.824Z,56.30
2018-05-26T11:16:36.099Z,56.30
2018-05-26T11:19:03.324Z,56.30
2018-05-26T11:21:30.616Z,56.30
2018-05-26T11:23:57.927Z,56.30
2018-05-26T11:26:25.147Z,56.30
2018-05-26T11:28:53.192Z,56.40
2018-05-26T11:31:20.415Z,56.30
2018-05-26T11:33:47.615Z,56.30
2018-05-26T11:36:15.579Z,56.30
2018-05-26T11:38:43.565Z,56.30
2018-05-26T11:41:10.791Z,56.30
2018-05-26T11:43:38.815Z,56.40
2018-05-26T11:46:06.008Z,56.30
2018-05-26T11:48:33.236Z,56.30
2018-05-26T11:51:00.446Z,56.30
2018-05-26T11:53:27.634Z,56.30
2018-05-26T11:55:54.863Z,56.40
2018-05-26T11:58:22.107Z,56.40
2018-05-26T12:00:49.311Z,56.40
2018-05-26T12:03:17.309Z,56.40
2018-05-26T12:05:44.567Z,56.40
2018-05-26T12:08:11.789Z,56.40
2018-05-26T12:10:39.736Z,56.50
2018-05-26T12:13:06.933Z,56.40
2018-05-26T12:15:34.132Z,56.40
2018-05-26T12:18:01.362Z,56.40
2018-05-26T12:20:28.876Z,56.40
2018-05-26T12:22:56.886Z,56.40
2018-05-26T12:25:24.161Z,56.40
2018-05-26T12:27:51.395Z,56.40
2018-05-26T12:30:18.596Z,56.50
2018-05-26T12:32:46.596Z,56.50
2018-05-26T12:35:13.779Z,56.50
2018-05-26T12:37:40.980Z,56.50
2018-05-26T12:40:08.253Z,56.50
2018-05-26T12:42:36.191Z,56.50
2018-05-26T12:45:03.426Z,56.50
2018-05-26T12:47:31.406Z,56.50
2018-05-26T12:52:32.854Z,56.50
2018-05-26T12:55:00.852Z,56.60
2018-05-26T12:57:28.037Z,56.60
2018-05-26T12:59:55.275Z,56.60
2018-05-26T13:02:22.480Z,56.60
2018-05-26T13:04:50.464Z,56.60
2018-05-26T13:07:17.677Z,56.60
2018-05-26T13:09:45.179Z,56.60
2018-05-26T13:12:12.383Z,56.60
2018-05-26T13:14:39.591Z,56.60
2018-05-26T13:17:08.012Z,56.60
2018-05-26T13:19:35.228Z,56.60
2018-05-26T13:22:02.424Z,56.60
2018-05-26T13:24:30.398Z,56.70
2018-05-26T13:26:58.348Z,57.30
2018-05-26T13:29:25.602Z,56.60
2018-05-26T13:31:52.868Z,56.60
2018-05-26T13:34:20.856Z,56.70
2018-05-26T13:36:48.060Z,56.70
2018-05-26T13:39:15.288Z,56.70
2018-05-26T13:41:42.491Z,56.70
2018-05-26T13:44:10.491Z,57.50
2018-05-26T13:46:37.784Z,56.90
2018-05-26T13:49:04.992Z,56.80
2018-05-26T13:51:32.252Z,56.80
2018-05-26T13:53:59.518Z,56.80
2018-05-26T13:56:26.912Z,56.80
2018-05-26T13:58:54.113Z,56.80
2018-05-26T14:01:21.299Z,56.80
2018-05-26T14:03:48.532Z,56.80
2018-05-26T14:06:15.769Z,57.00
2018-05-26T14:08:42.990Z,57.20
2018-05-26T14:11:10.204Z,57.20
2018-05-26T14:13:37.430Z,57.10
2018-05-26T14:16:04.664Z,57.00
2018-05-26T14:18:31.886Z,57.00
2018-05-26T14:20:59.097Z,56.90
2018-05-26T14:23:26.292Z,57.00
2018-05-26T14:25:53.504Z,57.00
2018-05-26T14:28:21.507Z,57.00
2018-05-26T14:30:48.710Z,57.00
2018-05-26T14:33:15.917Z,57.00
2018-05-26T14:35:43.144Z,56.90
2018-05-26T14:38:11.090Z,56.90
2018-05-26T14:40:38.277Z,56.90
2018-05-26T14:45:38.945Z,56.90
2018-05-26T14:48:06.154Z,56.90
2018-05-26T14:50:34.165Z,56.90
2018-05-26T14:53:01.451Z,56.80
2018-05-26T14:55:28.649Z,56.90
2018-05-26T14:57:55.849Z,56.90
2018-05-26T15:00:23.082Z,56.90
2018-05-26T15:02:50.286Z,56.90
2018-05-26T15:05:18.260Z,56.90
2018-05-26T15:07:45.486Z,56.90
2018-05-26T15:10:13.492Z,56.90
2018-05-26T15:12:40.802Z,56.90
2018-05-26T15:15:08.000Z,56.90
2018-05-26T15:17:36.865Z,56.90
2018-05-26T15:20:04.097Z,56.70
2018-05-26T15:22:32.083Z,56.90
2018-05-26T15:24:59.294Z,56.90
2018-05-26T15:27:26.523Z,56.90
2018-05-26T15:29:53.728Z,56.90
2018-05-26T15:32:21.726Z,56.90
2018-05-26T15:34:48.951Z,56.90
2018-05-26T15:37:16.191Z,56.90
2018-05-26T15:39:44.156Z,56.90
2018-05-26T15:42:12.142Z,56.80
2018-05-26T15:44:39.366Z,56.80
2018-05-26T15:47:06.609Z,56.90
2018-05-26T15:49:33.811Z,56.80
2018-05-26T15:52:01.000Z,56.80
2018-05-26T15:54:28.196Z,56.80
2018-05-26T15:56:55.420Z,56.80
2018-05-26T15:59:22.646Z,56.80
2018-05-26T16:01:49.865Z,56.80
2018-05-26T16:04:17.121Z,56.90
2018-05-26T16:06:44.376Z,56.90
2018-05-26T16:09:11.595Z,56.90
2018-05-26T16:11:38.812Z,56.90
2018-05-26T16:14:06.025Z,56.80
2018-05-26T16:16:33.229Z,56.80
2018-05-26T16:19:01.216Z,56.80
2018-05-26T16:21:28.416Z,56.80
2018-05-26T16:23:55.629Z,56.80
2018-05-26T16:26:22.898Z,56.80
2018-05-26T16:28:50.097Z,56.80
2018-05-26T16:31:18.053Z,56.80
2018-05-26T16:33:45.260Z,56.80
2018-05-26T16:36:12.488Z,56.80
2018-05-26T16:38:39.716Z,56.80
2018-05-26T16:41:07.680Z,56.80
2018-05-26T16:43:35.678Z,57.00
2018-05-26T16:46:02.889Z,56.80
2018-05-26T16:48:30.092Z,56.80
2018-05-26T16:50:57.306Z,56.80
2018-05-26T16:53:25.307Z,56.80
2018-05-26T16:55:52.523Z,56.70
2018-05-26T16:58:20.526Z,56.80
2018-05-26T17:00:47.771Z,56.70
2018-05-26T17:03:14.986Z,56.70
2018-05-26T17:05:42.192Z,56.70
2018-05-26T17:08:09.393Z,56.70
2018-05-26T17:10:37.384Z,56.80
2018-05-26T17:13:04.600Z,56.70
2018-05-26T17:15:31.813Z,56.80
2018-05-26T17:17:59.008Z,56.80
2018-05-26T17:20:26.996Z,56.80
2018-05-26T17:22:54.195Z,56.70
2018-05-26T17:25:21.401Z,56.80
2018-05-26T17:27:48.672Z,56.80
2018-05-26T17:32:49.642Z,56.80
2018-05-26T17:35:16.861Z,56.80
2018-05-26T17:37:44.085Z,56.70
2018-05-26T17:40:12.074Z,56.80
2018-05-26T17:42:39.287Z,56.70
2018-05-26T17:45:06.494Z,56.70
2018-05-26T17:47:33.768Z,56.70
2018-05-26T17:50:01.008Z,56.70
2018-05-26T17:52:28.204Z,56.70
2018-05-26T17:54:56.199Z,56.70
2018-05-26T17:57:23.402Z,56.70
2018-05-26T17:59:50.689Z,56.70
2018-05-26T18:02:18.672Z,56.70
2018-05-26T18:04:45.900Z,56.70
2018-05-26T18:07:13.894Z,56.70
2018-05-26T18:09:41.126Z,56.70
2018-05-26T18:12:09.148Z,56.70
2018-05-26T18:14:36.466Z,56.70
2018-05-26T18:17:03.666Z,56.70
2018-05-26T18:19:30.871Z,56.70
2018-05-26T18:21:58.124Z,56.70
2018-05-26T18:24:25.327Z,56.70
2018-05-26T18:26:52.516Z,56.70
2018-05-26T18:29:19.701Z,56.70
2018-05-26T18:31:46.964Z,56.60
2018-05-26T18:34:14.219Z,56.60
2018-05-26T18:36:41.443Z,56.60
2018-05-26T18:39:08.748Z,56.70
2018-05-26T18:41:35.920Z,56.70
2018-05-26T18:44:03.198Z,56.70
2018-05-26T18:46:30.449Z,56.70
2018-05-26T18:48:57.709Z,56.60
2018-05-26T18:51:24.920Z,57.30
2018-05-26T18:53:52.130Z,56.60
2018-05-26T18:56:19.354Z,56.60
2018-05-26T18:58:46.590Z,56.60
2018-05-26T19:01:13.780Z,56.60
2018-05-26T19:03:41.752Z,56.60
2018-05-26T19:06:09.028Z,56.60
2018-05-26T19:08:36.995Z,56.70
2018-05-26T19:11:04.996Z,56.60
2018-05-26T19:13:32.201Z,56.60
2018-05-26T19:16:00.225Z,56.60
2018-05-26T19:18:27.422Z,56.60
2018-05-26T19:20:55.404Z,56.60
2018-05-26T19:23:23.345Z,56.60
2018-05-26T19:25:50.546Z,56.60
2018-05-26T19:28:17.736Z,56.60
2018-05-26T19:30:44.940Z,56.60
2018-05-26T19:33:12.151Z,56.60
2018-05-26T19:35:39.383Z,56.60
2018-05-26T19:38:06.584Z,56.60
2018-05-26T19:40:33.816Z,56.60
2018-05-26T19:43:01.782Z,56.60
2018-05-26T19:45:29.770Z,56.60
2018-05-26T19:47:56.987Z,56.60
2018-05-26T19:50:24.187Z,56.60
2018-05-26T19:52:51.377Z,56.20
2018-05-26T19:55:18.580Z,56.60
2018-05-26T19:57:45.800Z,56.60
2018-05-26T20:00:13.760Z,56.60
2018-05-26T20:02:41.736Z,56.70
2018-05-26T20:05:09.700Z,56.60
2018-05-26T20:07:37.677Z,56.60
2018-05-26T20:10:05.679Z,56.60
2018-05-26T20:12:32.889Z,56.50
2018-05-26T20:15:00.871Z,56.60
2018-05-26T20:17:28.103Z,56.60
2018-05-26T20:19:56.076Z,56.60
2018-05-26T20:22:24.181Z,56.60
2018-05-26T20:24:51.384Z,56.50
2018-05-26T20:27:18.567Z,56.60
2018-05-26T20:29:45.791Z,56.50
2018-05-26T20:32:13.828Z,56.60
2018-05-26T20:34:41.020Z,56.60
2018-05-26T20:37:09.038Z,56.60
2018-05-26T20:39:36.240Z,56.60
2018-05-26T20:42:04.242Z,56.60
2018-05-26T20:44:31.505Z,56.60
2018-05-26T20:46:58.725Z,56.60
2018-05-26T20:49:25.954Z,56.60
2018-05-26T20:51:53.909Z,56.60
2018-05-26T20:54:21.123Z,56.50
2018-05-26T20:56:48.347Z,56.90
2018-05-26T20:59:15.564Z,56.50
2018-05-26T21:01:42.777Z,56.50
2018-05-26T21:04:09.975Z,56.70
2018-05-26T21:06:37.961Z,56.50
2018-05-26T21:09:05.222Z,56.50
2018-05-26T21:11:32.430Z,56.50
2018-05-26T21:13:59.644Z,56.50
2018-05-26T21:16:27.106Z,56.50
2018-05-26T21:18:54.311Z,56.50
2018-05-26T21:21:22.282Z,56.60
2018-05-26T21:23:50.262Z,56.50
2018-05-26T21:26:17.481Z,56.50
2018-05-26T21:28:45.480Z,56.50
2018-05-26T21:31:12.691Z,56.50
2018-05-26T21:33:39.899Z,56.50
2018-05-26T21:36:07.138Z,56.50
2018-05-26T21:38:34.375Z,56.50
2018-05-26T21:41:01.595Z,56.50
2018-05-26T21:43:28.795Z,56.50
2018-05-26T21:45:56.048Z,56.50
2018-05-26T21:48:23.464Z,56.50
2018-05-26T21:50:51.462Z,56.50
2018-05-26T21:53:18.699Z,56.50
2018-05-26T21:55:45.905Z,56.50
2018-05-26T21:58:13.133Z,56.50
2018-05-26T22:00:40.340Z,56.50
2018-05-26T22:03:08.296Z,56.50
2018-05-26T22:05:36.273Z,56.50
2018-05-26T22:08:04.256Z,56.50
2018-05-26T22:10:31.498Z,56.50
2018-05-26T22:12:58.761Z,56.40
2018-05-26T22:15:25.963Z,56.40
2018-05-26T22:17:53.208Z,56.40
2018-05-26T22:20:20.473Z,56.40
2018-05-26T22:22:47.784Z,56.50
2018-05-26T22:25:14.998Z,56.50
2018-05-26T22:27:43.006Z,56.60
2018-05-26T22:30:10.197Z,56.60
2018-05-26T22:32:37.427Z,56.60
2018-05-26T22:35:04.662Z,56.60
2018-05-26T22:37:31.885Z,56.70
2018-05-26T22:39:59.077Z,57.00
2018-05-26T22:42:26.340Z,57.80
2018-05-26T22:44:53.547Z,58.40
2018-05-26T22:47:20.969Z,58.40
2018-05-26T22:49:48.973Z,58.50
2018-05-26T22:52:16.225Z,58.50
2018-05-26T22:54:43.493Z,58.70
2018-05-26T22:57:10.715Z,58.70
2018-05-26T22:59:37.907Z,58.60
2018-05-26T23:02:05.124Z,58.70
2018-05-26T23:04:32.332Z,58.80
2018-05-26T23:07:00.308Z,58.80
2018-05-26T23:09:27.527Z,58.80
2018-05-26T23:11:54.756Z,58.80
2018-05-26T23:14:21.958Z,58.90
2018-05-26T23:16:49.940Z,58.60
2018-05-26T23:19:17.954Z,58.50
2018-05-26T23:21:45.141Z,58.50
2018-05-26T23:24:13.100Z,58.40
2018-05-26T23:26:40.300Z,58.40
2018-05-26T23:29:07.559Z,58.30
2018-05-26T23:31:34.760Z,58.20
2018-05-26T23:34:02.716Z,58.10
2018-05-26T23:36:29.896Z,58.10
2018-05-26T23:38:57.914Z,58.00
2018-05-26T23:41:25.152Z,58.00
2018-05-26T23:43:52.392Z,58.00
2018-05-26T23:46:19.625Z,57.90
2018-05-26T23:48:46.821Z,57.90
2018-05-26T23:51:14.054Z,57.90
2018-05-26T23:53:41.288Z,57.80
2018-05-26T23:56:08.486Z,57.80
2018-05-26T23:58:35.707Z,57.90
